Itumbiara, Brazil
Current Conditions -  °F | °C
As of 6:00 PM on Friday 31 Oct 2014 (Local Time) from SBUL Reporting Station
Thunderstorm Thunderstorm  
Wind Chill: 66°   Ceiling: 7000
Heat Index: 66°   Visibility: 4mi
Dew Point: 64°   Wind: 2mph
Humidity: 94%   Direction: 10°N
Pressure: 30"   Gusts: NA
Location:  18.42°S, 49.22°W
Report Text: SBUL 312000Z 01002KT 6000 -TSRA FEW035 FEW050CB BKN070 19/18 Q1016
Loading
Personal Weather Stations






























Interactive Weather Map
Tropical Storm Tracking
New forecast layout! Learn more

10-Day Weather Forecast

Advertisements
Track Severe Weather on mobile